N600FA SPJC-SCDA
Flight info
| Callsign | N600FA |
|---|---|
| Flight time | 3h 10m |
| Altitude | 7000 |
| Route | ASOXI UL550 ALDAX UT210 LOKIR LOKIR6B |
| Aircraft | AEST/L-SDFGRY/S |
Departure
| Time | 2026-04-18 03:24 |
|---|---|
| Airport | Jorge Chávez International Airport (SPJC) |
Arrival
| Time | 2026-04-18 06:35 |
|---|---|
| Airport | Diego Aracena International Airport (SCDA) |
| Time | Latitude | Longitude | Altitude | Speed | Heading |
|---|---|---|---|---|---|
| 2026-04-18 03:06 | -12.01821 | -77.11335 | 56 ft | 0 kts | 137° |
| 2026-04-18 03:07 | -12.01868 | -77.11344 | 57 ft | 13 kts | 193° |
| 2026-04-18 03:07 | -12.01949 | -77.11341 | 58 ft | 11 kts | 150° |
| 2026-04-18 03:07 | -12.02020 | -77.11310 | 60 ft | 15 kts | 153° |
| 2026-04-18 03:07 | -12.02148 | -77.11238 | 62 ft | 20 kts | 154° |
| 2026-04-18 03:08 | -12.02255 | -77.11185 | 65 ft | 16 kts | 153° |
| 2026-04-18 03:08 | -12.02345 | -77.11142 | 67 ft | 13 kts | 156° |
| 2026-04-18 03:08 | -12.02399 | -77.11115 | 66 ft | 7 kts | 154° |
| 2026-04-18 03:08 | -12.02444 | -77.11135 | 66 ft | 9 kts | 243° |
| 2026-04-18 03:09 | -12.02454 | -77.11157 | 68 ft | 17 kts | 243° |
| 2026-04-18 03:09 | -12.02498 | -77.11245 | 69 ft | 18 kts | 243° |
| 2026-04-18 03:09 | -12.02559 | -77.11385 | 66 ft | 21 kts | 283° |
| 2026-04-18 03:09 | -12.02465 | -77.11465 | 65 ft | 20 kts | 327° |
| 2026-04-18 03:10 | -12.02336 | -77.11536 | 63 ft | 22 kts | 330° |
| 2026-04-18 03:10 | -12.02191 | -77.11611 | 56 ft | 24 kts | 338° |
| 2026-04-18 03:10 | -12.02029 | -77.11686 | 57 ft | 26 kts | 334° |
| 2026-04-18 03:10 | -12.01910 | -77.11799 | 54 ft | 23 kts | 297° |
| 2026-04-18 03:11 | -12.01884 | -77.11934 | 53 ft | 21 kts | 242° |
| 2026-04-18 03:11 | -12.01945 | -77.12061 | 55 ft | 19 kts | 245° |
| 2026-04-18 03:11 | -12.01998 | -77.12177 | 56 ft | 17 kts | 246° |
| 2026-04-18 03:11 | -12.02047 | -77.12285 | 58 ft | 16 kts | 244° |
| 2026-04-18 03:12 | -12.02093 | -77.12378 | 57 ft | 12 kts | 242° |
| 2026-04-18 03:12 | -12.02101 | -77.12479 | 59 ft | 18 kts | 299° |
| 2026-04-18 03:12 | -12.01980 | -77.12549 | 61 ft | 22 kts | 332° |
| 2026-04-18 03:12 | -12.01849 | -77.12618 | 66 ft | 21 kts | 334° |
| 2026-04-18 03:13 | -12.01713 | -77.12686 | 69 ft | 29 kts | 333° |
| 2026-04-18 03:13 | -12.01498 | -77.12789 | 73 ft | 33 kts | 334° |
| 2026-04-18 03:13 | -12.01306 | -77.12883 | 77 ft | 30 kts | 334° |
| 2026-04-18 03:13 | -12.01126 | -77.12959 | 82 ft | 27 kts | 332° |
| 2026-04-18 03:14 | -12.00964 | -77.13040 | 84 ft | 25 kts | 334° |
| 2026-04-18 03:14 | -12.00812 | -77.13115 | 88 ft | 24 kts | 334° |
| 2026-04-18 03:14 | -12.00679 | -77.13181 | 91 ft | 15 kts | 333° |
| 2026-04-18 03:14 | -12.00622 | -77.13227 | 93 ft | 4 kts | 272° |
| 2026-04-18 03:15 | -12.00622 | -77.13231 | 93 ft | 0 kts | 268° |
| 2026-04-18 03:20 | -12.00627 | -77.13252 | 93 ft | 7 kts | 250° |
| 2026-04-18 03:20 | -12.00643 | -77.13287 | 94 ft | 0 kts | 242° |
| 2026-04-18 03:22 | -12.00644 | -77.13290 | 94 ft | 6 kts | 241° |
| 2026-04-18 03:22 | -12.00703 | -77.13350 | 95 ft | 14 kts | 170° |
| 2026-04-18 03:22 | -12.00738 | -77.13338 | 95 ft | 0 kts | 155° |
| 2026-04-18 03:23 | -12.00741 | -77.13337 | 95 ft | 9 kts | 154° |
| 2026-04-18 03:24 | -12.01070 | -77.13174 | 89 ft | 85 kts | 156° |
| 2026-04-18 03:24 | -12.01664 | -77.12886 | 256 ft | 106 kts | 157° |
| 2026-04-18 03:24 | -12.02401 | -77.12535 | 518 ft | 126 kts | 156° |
| 2026-04-18 03:24 | -12.03265 | -77.12107 | 743 ft | 148 kts | 155° |
| 2026-04-18 03:25 | -12.04248 | -77.11623 | 929 ft | 165 kts | 156° |
| 2026-04-18 03:25 | -12.05287 | -77.11116 | 1343 ft | 166 kts | 156° |
| 2026-04-18 03:25 | -12.06295 | -77.10536 | 1689 ft | 169 kts | 146° |
| 2026-04-18 03:25 | -12.07219 | -77.09818 | 2033 ft | 170 kts | 144° |
| 2026-04-18 03:26 | -12.08172 | -77.09090 | 2367 ft | 171 kts | 143° |
| 2026-04-18 03:26 | -12.09145 | -77.08381 | 2719 ft | 173 kts | 144° |
| 2026-04-18 03:26 | -12.10142 | -77.07686 | 3066 ft | 174 kts | 146° |
| 2026-04-18 03:26 | -12.11172 | -77.07020 | 3403 ft | 176 kts | 149° |
| 2026-04-18 03:27 | -12.12260 | -77.06429 | 3720 ft | 178 kts | 153° |
| 2026-04-18 03:27 | -12.13381 | -77.05887 | 4042 ft | 179 kts | 155° |
| 2026-04-18 03:27 | -12.14511 | -77.05354 | 4363 ft | 179 kts | 155° |
| 2026-04-18 03:27 | -12.15625 | -77.04811 | 4670 ft | 180 kts | 154° |
| 2026-04-18 03:28 | -12.16702 | -77.04159 | 4963 ft | 181 kts | 144° |
| 2026-04-18 03:28 | -12.17702 | -77.03378 | 5256 ft | 181 kts | 142° |
| 2026-04-18 03:28 | -12.18701 | -77.02589 | 5544 ft | 181 kts | 143° |
| 2026-04-18 03:28 | -12.19711 | -77.01826 | 5822 ft | 180 kts | 144° |
| 2026-04-18 03:29 | -12.20735 | -77.01089 | 6132 ft | 179 kts | 146° |
| 2026-04-18 03:29 | -12.21753 | -77.00373 | 6421 ft | 177 kts | 146° |
| 2026-04-18 03:29 | -12.22762 | -76.99658 | 6672 ft | 176 kts | 145° |
| 2026-04-18 03:29 | -12.23741 | -76.98940 | 6918 ft | 175 kts | 144° |
| 2026-04-18 03:30 | -12.24723 | -76.98210 | 7158 ft | 174 kts | 144° |
| 2026-04-18 03:30 | -12.25696 | -76.97483 | 7410 ft | 172 kts | 145° |
| 2026-04-18 03:30 | -12.26671 | -76.96772 | 7639 ft | 172 kts | 145° |
| 2026-04-18 03:30 | -12.27646 | -76.96069 | 7855 ft | 171 kts | 145° |
| 2026-04-18 03:31 | -12.28613 | -76.95372 | 8065 ft | 169 kts | 145° |
| 2026-04-18 03:31 | -12.29561 | -76.94679 | 8283 ft | 166 kts | 145° |
| 2026-04-18 03:31 | -12.30505 | -76.93985 | 8475 ft | 169 kts | 145° |
| 2026-04-18 03:31 | -12.31464 | -76.93284 | 8681 ft | 169 kts | 145° |
| 2026-04-18 03:32 | -12.32410 | -76.92590 | 8869 ft | 169 kts | 145° |
| 2026-04-18 03:32 | -12.33364 | -76.91892 | 9044 ft | 169 kts | 146° |
| 2026-04-18 03:32 | -12.34356 | -76.91174 | 9021 ft | 182 kts | 146° |
| 2026-04-18 03:32 | -12.35421 | -76.90405 | 8996 ft | 192 kts | 145° |
| 2026-04-18 03:33 | -12.36521 | -76.89600 | 9007 ft | 197 kts | 145° |
| 2026-04-18 03:33 | -12.37638 | -76.88770 | 8993 ft | 200 kts | 145° |
| 2026-04-18 03:33 | -12.38781 | -76.87935 | 9003 ft | 204 kts | 145° |
| 2026-04-18 03:33 | -12.39925 | -76.87103 | 8999 ft | 205 kts | 145° |
| 2026-04-18 03:34 | -12.41087 | -76.86256 | 8986 ft | 208 kts | 145° |
| 2026-04-18 03:34 | -12.42270 | -76.85396 | 9000 ft | 209 kts | 144° |
| 2026-04-18 03:34 | -12.43449 | -76.84528 | 8999 ft | 209 kts | 144° |
| 2026-04-18 03:34 | -12.44634 | -76.83658 | 9001 ft | 210 kts | 144° |
| 2026-04-18 03:35 | -12.45822 | -76.82787 | 9002 ft | 210 kts | 145° |
| 2026-04-18 03:35 | -12.47018 | -76.81917 | 9001 ft | 211 kts | 145° |
| 2026-04-18 03:35 | -12.48215 | -76.81045 | 8998 ft | 211 kts | 145° |
| 2026-04-18 03:35 | -12.49399 | -76.80182 | 8999 ft | 212 kts | 144° |
| 2026-04-18 03:36 | -12.50603 | -76.79299 | 9013 ft | 213 kts | 144° |
| 2026-04-18 03:36 | -12.51803 | -76.78415 | 9009 ft | 213 kts | 144° |
| 2026-04-18 03:36 | -12.53010 | -76.77532 | 9017 ft | 213 kts | 145° |
| 2026-04-18 03:36 | -12.54221 | -76.76651 | 9009 ft | 214 kts | 144° |
| 2026-04-18 03:37 | -12.55429 | -76.75766 | 9021 ft | 213 kts | 144° |
| 2026-04-18 03:37 | -12.56633 | -76.74882 | 9016 ft | 213 kts | 144° |
| 2026-04-18 03:37 | -12.57822 | -76.74012 | 9018 ft | 213 kts | 145° |
| 2026-04-18 03:37 | -12.59031 | -76.73130 | 9017 ft | 213 kts | 144° |
| 2026-04-18 03:38 | -12.60236 | -76.72246 | 9011 ft | 213 kts | 144° |
| 2026-04-18 03:38 | -12.61440 | -76.71364 | 9013 ft | 213 kts | 145° |
| 2026-04-18 03:38 | -12.62645 | -76.70482 | 9014 ft | 213 kts | 145° |
| 2026-04-18 03:38 | -12.63852 | -76.69599 | 9014 ft | 213 kts | 144° |
| 2026-04-18 03:39 | -12.65058 | -76.68715 | 9015 ft | 213 kts | 144° |
| 2026-04-18 03:39 | -12.66265 | -76.67829 | 9014 ft | 214 kts | 144° |
| 2026-04-18 03:39 | -12.67458 | -76.66956 | 9013 ft | 214 kts | 144° |
| 2026-04-18 03:39 | -12.68667 | -76.66072 | 9009 ft | 214 kts | 144° |
| 2026-04-18 03:40 | -12.69877 | -76.65186 | 9012 ft | 214 kts | 144° |
| 2026-04-18 03:40 | -12.71082 | -76.64300 | 9035 ft | 213 kts | 144° |
| 2026-04-18 03:40 | -12.72288 | -76.63416 | 9019 ft | 213 kts | 144° |
| 2026-04-18 03:40 | -12.73495 | -76.62532 | 9019 ft | 213 kts | 144° |
| 2026-04-18 03:41 | -12.74700 | -76.61648 | 9022 ft | 213 kts | 144° |
| 2026-04-18 03:41 | -12.75906 | -76.60763 | 9018 ft | 213 kts | 144° |
| 2026-04-18 03:41 | -12.77167 | -76.60019 | 9023 ft | 213 kts | 159° |
| 2026-04-18 03:41 | -12.78567 | -76.59517 | 9020 ft | 213 kts | 162° |
| 2026-04-18 03:42 | -12.79966 | -76.59056 | 9021 ft | 211 kts | 161° |
| 2026-04-18 03:42 | -12.81353 | -76.58549 | 9020 ft | 212 kts | 159° |
| 2026-04-18 03:42 | -12.82719 | -76.58000 | 9018 ft | 211 kts | 158° |
| 2026-04-18 03:42 | -12.84075 | -76.57435 | 9018 ft | 210 kts | 158° |
| 2026-04-18 03:43 | -12.85431 | -76.56877 | 9017 ft | 210 kts | 158° |
| 2026-04-18 03:43 | -12.86793 | -76.56334 | 9000 ft | 211 kts | 159° |
| 2026-04-18 03:43 | -12.88149 | -76.55801 | 8999 ft | 212 kts | 159° |
| 2026-04-18 03:43 | -12.89525 | -76.55256 | 9004 ft | 212 kts | 159° |
| 2026-04-18 03:44 | -12.90896 | -76.54703 | 9005 ft | 212 kts | 158° |
| 2026-04-18 03:44 | -12.92264 | -76.54147 | 9005 ft | 211 kts | 158° |
| 2026-04-18 03:44 | -12.93628 | -76.53597 | 9005 ft | 211 kts | 159° |
| 2026-04-18 03:44 | -12.94996 | -76.53049 | 9006 ft | 212 kts | 159° |
| 2026-04-18 03:45 | -12.96370 | -76.52501 | 9000 ft | 211 kts | 159° |
| 2026-04-18 03:45 | -12.97713 | -76.51962 | 9002 ft | 210 kts | 159° |
| 2026-04-18 03:45 | -12.99072 | -76.51415 | 9001 ft | 210 kts | 159° |
| 2026-04-18 03:45 | -13.00438 | -76.50866 | 8991 ft | 211 kts | 159° |
| 2026-04-18 03:46 | -13.01805 | -76.50315 | 8999 ft | 212 kts | 159° |
| 2026-04-18 03:46 | -13.03189 | -76.49759 | 8996 ft | 215 kts | 159° |
| 2026-04-18 03:46 | -13.04582 | -76.49201 | 8996 ft | 215 kts | 159° |
| 2026-04-18 03:46 | -13.05980 | -76.48639 | 8998 ft | 216 kts | 159° |
| 2026-04-18 03:47 | -13.07385 | -76.48075 | 8998 ft | 217 kts | 159° |
| 2026-04-18 03:47 | -13.08795 | -76.47508 | 8998 ft | 218 kts | 159° |
| 2026-04-18 03:47 | -13.10209 | -76.46939 | 8994 ft | 219 kts | 159° |
| 2026-04-18 03:47 | -13.11606 | -76.46377 | 8998 ft | 219 kts | 159° |
| 2026-04-18 03:48 | -13.13024 | -76.45806 | 8997 ft | 219 kts | 159° |
| 2026-04-18 03:48 | -13.14436 | -76.45239 | 8984 ft | 217 kts | 159° |
| 2026-04-18 03:48 | -13.15840 | -76.44674 | 8984 ft | 217 kts | 159° |
| 2026-04-18 03:48 | -13.17243 | -76.44110 | 8983 ft | 216 kts | 159° |
| 2026-04-18 03:49 | -13.18643 | -76.43547 | 8984 ft | 216 kts | 159° |
| 2026-04-18 03:49 | -13.20044 | -76.42983 | 8984 ft | 217 kts | 159° |
| 2026-04-18 03:49 | -13.21444 | -76.42419 | 8984 ft | 216 kts | 159° |
| 2026-04-18 03:49 | -13.22828 | -76.41862 | 8984 ft | 217 kts | 159° |
| 2026-04-18 03:50 | -13.24235 | -76.41296 | 8983 ft | 217 kts | 159° |
| 2026-04-18 03:50 | -13.25644 | -76.40728 | 8984 ft | 218 kts | 159° |
| 2026-04-18 03:50 | -13.27054 | -76.40160 | 8983 ft | 218 kts | 159° |
| 2026-04-18 03:50 | -13.28462 | -76.39594 | 8971 ft | 217 kts | 159° |
| 2026-04-18 03:51 | -13.29867 | -76.39028 | 8977 ft | 217 kts | 159° |
| 2026-04-18 03:51 | -13.31272 | -76.38463 | 8975 ft | 217 kts | 159° |
| 2026-04-18 03:51 | -13.32673 | -76.37898 | 8975 ft | 216 kts | 159° |
| 2026-04-18 03:51 | -13.34055 | -76.37341 | 8974 ft | 216 kts | 159° |
| 2026-04-18 03:52 | -13.35461 | -76.36774 | 8968 ft | 218 kts | 159° |
| 2026-04-18 03:52 | -13.36869 | -76.36207 | 8969 ft | 217 kts | 159° |
| 2026-04-18 03:52 | -13.38274 | -76.35640 | 8981 ft | 216 kts | 159° |
| 2026-04-18 03:52 | -13.39674 | -76.35076 | 8981 ft | 216 kts | 159° |
| 2026-04-18 03:53 | -13.41071 | -76.34513 | 8971 ft | 216 kts | 159° |
| 2026-04-18 03:53 | -13.42471 | -76.33949 | 8967 ft | 217 kts | 159° |
| 2026-04-18 03:53 | -13.43877 | -76.33383 | 8968 ft | 217 kts | 159° |
| 2026-04-18 03:53 | -13.45260 | -76.32824 | 8970 ft | 216 kts | 159° |
| 2026-04-18 03:54 | -13.46661 | -76.32258 | 8969 ft | 216 kts | 159° |
| 2026-04-18 03:54 | -13.48060 | -76.31694 | 8973 ft | 217 kts | 159° |
| 2026-04-18 03:54 | -13.49467 | -76.31128 | 8972 ft | 217 kts | 159° |
| 2026-04-18 03:54 | -13.50873 | -76.30560 | 8972 ft | 217 kts | 159° |
| 2026-04-18 03:55 | -13.52279 | -76.29991 | 8974 ft | 217 kts | 159° |
| 2026-04-18 03:55 | -13.53687 | -76.29422 | 8973 ft | 217 kts | 159° |
| 2026-04-18 03:55 | -13.55094 | -76.28856 | 8969 ft | 217 kts | 159° |
| 2026-04-18 03:55 | -13.56482 | -76.28296 | 8969 ft | 217 kts | 159° |
| 2026-04-18 03:56 | -13.57889 | -76.27728 | 8969 ft | 217 kts | 159° |
| 2026-04-18 03:56 | -13.59296 | -76.27159 | 8971 ft | 217 kts | 159° |
| 2026-04-18 03:56 | -13.60703 | -76.26590 | 8973 ft | 217 kts | 159° |
| 2026-04-18 03:56 | -13.62109 | -76.26022 | 8974 ft | 217 kts | 159° |
| 2026-04-18 03:57 | -13.64926 | -76.24886 | 8973 ft | 218 kts | 159° |
| 2026-04-18 03:57 | -13.66334 | -76.24316 | 8973 ft | 218 kts | 159° |
| 2026-04-18 03:57 | -13.67724 | -76.23754 | 8974 ft | 218 kts | 159° |
| 2026-04-18 03:58 | -13.69132 | -76.23185 | 8972 ft | 217 kts | 159° |
| 2026-04-18 03:58 | -13.70539 | -76.22616 | 8974 ft | 217 kts | 159° |
| 2026-04-18 03:58 | -13.71947 | -76.22047 | 8974 ft | 217 kts | 159° |
| 2026-04-18 03:58 | -13.72868 | -76.21675 | 8970 ft | 217 kts | 159° |
| 2026-04-18 03:59 | -13.74273 | -76.21097 | 8976 ft | 217 kts | 155° |
| 2026-04-18 03:59 | -13.75513 | -76.20220 | 8978 ft | 217 kts | 141° |
| 2026-04-18 03:59 | -13.76665 | -76.19211 | 8971 ft | 217 kts | 139° |
| 2026-04-18 03:59 | -13.77789 | -76.18203 | 8978 ft | 217 kts | 140° |
| 2026-04-18 04:00 | -13.78963 | -76.17222 | 8977 ft | 217 kts | 142° |
| 2026-04-18 04:00 | -13.80167 | -76.16277 | 8970 ft | 217 kts | 143° |
| 2026-04-18 04:00 | -13.81375 | -76.15351 | 8970 ft | 216 kts | 143° |
| 2026-04-18 04:00 | -13.82570 | -76.14424 | 8972 ft | 214 kts | 143° |
| 2026-04-18 04:01 | -13.83746 | -76.13488 | 8976 ft | 214 kts | 142° |
| 2026-04-18 04:01 | -13.84917 | -76.12548 | 8973 ft | 213 kts | 142° |
| 2026-04-18 04:01 | -13.86092 | -76.11616 | 8972 ft | 213 kts | 143° |
| 2026-04-18 04:01 | -13.87255 | -76.10704 | 8973 ft | 213 kts | 143° |
| 2026-04-18 04:02 | -13.88433 | -76.09783 | 8972 ft | 213 kts | 143° |
| 2026-04-18 04:02 | -13.89608 | -76.08858 | 8972 ft | 213 kts | 143° |
| 2026-04-18 04:02 | -13.90779 | -76.07929 | 8970 ft | 213 kts | 142° |
| 2026-04-18 04:02 | -13.91950 | -76.07000 | 8974 ft | 212 kts | 142° |
| 2026-04-18 04:03 | -13.93122 | -76.06073 | 8976 ft | 212 kts | 143° |
| 2026-04-18 04:03 | -13.94295 | -76.05149 | 8977 ft | 212 kts | 143° |
| 2026-04-18 04:03 | -13.95468 | -76.04226 | 8979 ft | 212 kts | 143° |
| 2026-04-18 04:03 | -13.96624 | -76.03313 | 8980 ft | 212 kts | 143° |
| 2026-04-18 04:04 | -13.97794 | -76.02386 | 8979 ft | 212 kts | 142° |
| 2026-04-18 04:04 | -13.98965 | -76.01460 | 8980 ft | 212 kts | 143° |
| 2026-04-18 04:04 | -14.00136 | -76.00535 | 8981 ft | 212 kts | 143° |
| 2026-04-18 04:04 | -14.01307 | -75.99610 | 8980 ft | 212 kts | 143° |
| 2026-04-18 04:05 | -14.02479 | -75.98685 | 8980 ft | 212 kts | 143° |
| 2026-04-18 04:05 | -14.03650 | -75.97759 | 8979 ft | 212 kts | 143° |
| 2026-04-18 04:05 | -14.04819 | -75.96834 | 8980 ft | 212 kts | 143° |
| 2026-04-18 04:05 | -14.05973 | -75.95921 | 8981 ft | 212 kts | 143° |
| 2026-04-18 04:06 | -14.07144 | -75.94994 | 8981 ft | 212 kts | 143° |
| 2026-04-18 04:06 | -14.08316 | -75.94068 | 8980 ft | 212 kts | 143° |
| 2026-04-18 04:06 | -14.09487 | -75.93142 | 8984 ft | 212 kts | 143° |
| 2026-04-18 04:06 | -14.10657 | -75.92216 | 8990 ft | 212 kts | 143° |
| 2026-04-18 04:07 | -14.11827 | -75.91290 | 8985 ft | 212 kts | 143° |
| 2026-04-18 04:07 | -14.12999 | -75.90363 | 8988 ft | 212 kts | 143° |
| 2026-04-18 04:07 | -14.14170 | -75.89437 | 8989 ft | 212 kts | 143° |
| 2026-04-18 04:07 | -14.15324 | -75.88523 | 8989 ft | 212 kts | 143° |
| 2026-04-18 04:08 | -14.16491 | -75.87599 | 8991 ft | 211 kts | 142° |
| 2026-04-18 04:08 | -14.17660 | -75.86673 | 8990 ft | 212 kts | 142° |
| 2026-04-18 04:08 | -14.18829 | -75.85746 | 8990 ft | 211 kts | 142° |
| 2026-04-18 04:08 | -14.19998 | -75.84820 | 8988 ft | 213 kts | 142° |
| 2026-04-18 04:09 | -14.21166 | -75.83895 | 8990 ft | 211 kts | 142° |
| 2026-04-18 04:09 | -14.22334 | -75.82972 | 8990 ft | 212 kts | 142° |
| 2026-04-18 04:09 | -14.23499 | -75.82048 | 8990 ft | 211 kts | 142° |
| 2026-04-18 04:09 | -14.24648 | -75.81136 | 8990 ft | 211 kts | 142° |
| 2026-04-18 04:10 | -14.25809 | -75.80216 | 8989 ft | 210 kts | 142° |
| 2026-04-18 04:10 | -14.26974 | -75.79294 | 8987 ft | 211 kts | 142° |
| 2026-04-18 04:10 | -14.28138 | -75.78370 | 9000 ft | 211 kts | 142° |
| 2026-04-18 04:10 | -14.29307 | -75.77442 | 8998 ft | 212 kts | 142° |
| 2026-04-18 04:11 | -14.30480 | -75.76512 | 8994 ft | 213 kts | 142° |
| 2026-04-18 04:11 | -14.31654 | -75.75583 | 8996 ft | 213 kts | 142° |
| 2026-04-18 04:11 | -14.32826 | -75.74654 | 8995 ft | 213 kts | 142° |
| 2026-04-18 04:11 | -14.33981 | -75.73736 | 8997 ft | 212 kts | 142° |
| 2026-04-18 04:12 | -14.35153 | -75.72806 | 8996 ft | 213 kts | 142° |
| 2026-04-18 04:12 | -14.36325 | -75.71875 | 8996 ft | 212 kts | 142° |
| 2026-04-18 04:12 | -14.37496 | -75.70947 | 8998 ft | 212 kts | 142° |
| 2026-04-18 04:12 | -14.38668 | -75.70017 | 8995 ft | 213 kts | 142° |
| 2026-04-18 04:13 | -14.39841 | -75.69086 | 8996 ft | 213 kts | 142° |
| 2026-04-18 04:13 | -14.41013 | -75.68155 | 8996 ft | 212 kts | 142° |
| 2026-04-18 04:13 | -14.42186 | -75.67224 | 8996 ft | 213 kts | 142° |
| 2026-04-18 04:13 | -14.43342 | -75.66305 | 8996 ft | 213 kts | 142° |
| 2026-04-18 04:14 | -14.44516 | -75.65373 | 8995 ft | 213 kts | 142° |
| 2026-04-18 04:14 | -14.45689 | -75.64441 | 8996 ft | 213 kts | 142° |
| 2026-04-18 04:14 | -14.46861 | -75.63510 | 9001 ft | 213 kts | 142° |
| 2026-04-18 04:14 | -14.48033 | -75.62578 | 9003 ft | 213 kts | 142° |
| 2026-04-18 04:15 | -14.49205 | -75.61646 | 9001 ft | 212 kts | 142° |
| 2026-04-18 04:15 | -14.50371 | -75.60718 | 8997 ft | 211 kts | 143° |
| 2026-04-18 04:15 | -14.51537 | -75.59793 | 9000 ft | 212 kts | 143° |
| 2026-04-18 04:15 | -14.52689 | -75.58881 | 9000 ft | 211 kts | 143° |
| 2026-04-18 04:16 | -14.53853 | -75.57954 | 8997 ft | 212 kts | 142° |
| 2026-04-18 04:16 | -14.55020 | -75.57024 | 8996 ft | 212 kts | 142° |
| 2026-04-18 04:16 | -14.56186 | -75.56095 | 8996 ft | 212 kts | 142° |
| 2026-04-18 04:16 | -14.57353 | -75.55167 | 8996 ft | 211 kts | 142° |
| 2026-04-18 04:17 | -14.58516 | -75.54242 | 8996 ft | 211 kts | 142° |
| 2026-04-18 04:17 | -14.59683 | -75.53315 | 8996 ft | 212 kts | 143° |
| 2026-04-18 04:17 | -14.60849 | -75.52388 | 8996 ft | 211 kts | 142° |
| 2026-04-18 04:17 | -14.61996 | -75.51473 | 8996 ft | 211 kts | 142° |
| 2026-04-18 04:18 | -14.63159 | -75.50547 | 9000 ft | 212 kts | 142° |
| 2026-04-18 04:18 | -14.64326 | -75.49619 | 8999 ft | 212 kts | 142° |
| 2026-04-18 04:18 | -14.65491 | -75.48690 | 8998 ft | 212 kts | 142° |
| 2026-04-18 04:18 | -14.66657 | -75.47762 | 9000 ft | 212 kts | 142° |
| 2026-04-18 04:19 | -14.67825 | -75.46832 | 9002 ft | 212 kts | 142° |
| 2026-04-18 04:19 | -14.68993 | -75.45901 | 9002 ft | 212 kts | 142° |
| 2026-04-18 04:19 | -14.70158 | -75.44972 | 9001 ft | 211 kts | 142° |
| 2026-04-18 04:19 | -14.71309 | -75.44056 | 9002 ft | 212 kts | 143° |
| 2026-04-18 04:20 | -14.72475 | -75.43128 | 8999 ft | 212 kts | 142° |
| 2026-04-18 04:20 | -14.73642 | -75.42199 | 8998 ft | 212 kts | 142° |
| 2026-04-18 04:20 | -14.74813 | -75.41267 | 8998 ft | 213 kts | 142° |
| 2026-04-18 04:20 | -14.75982 | -75.40331 | 8999 ft | 213 kts | 142° |
| 2026-04-18 04:21 | -14.77154 | -75.39394 | 9001 ft | 213 kts | 142° |
| 2026-04-18 04:21 | -14.78326 | -75.38460 | 9001 ft | 213 kts | 142° |
| 2026-04-18 04:21 | -14.79499 | -75.37527 | 9002 ft | 213 kts | 142° |
| 2026-04-18 04:21 | -14.80658 | -75.36605 | 9000 ft | 213 kts | 142° |
| 2026-04-18 04:22 | -14.81830 | -75.35669 | 8999 ft | 213 kts | 142° |
| 2026-04-18 04:22 | -14.83002 | -75.34731 | 9004 ft | 213 kts | 142° |
| 2026-04-18 04:22 | -14.84173 | -75.33797 | 9004 ft | 213 kts | 142° |
| 2026-04-18 04:22 | -14.85344 | -75.32863 | 9004 ft | 213 kts | 142° |
| 2026-04-18 04:23 | -14.86516 | -75.31928 | 9001 ft | 213 kts | 142° |
| 2026-04-18 04:23 | -14.87687 | -75.30993 | 9001 ft | 213 kts | 142° |
| 2026-04-18 04:23 | -14.88858 | -75.30058 | 9004 ft | 213 kts | 142° |
| 2026-04-18 04:23 | -14.90013 | -75.29135 | 9004 ft | 213 kts | 142° |
| 2026-04-18 04:24 | -14.91184 | -75.28200 | 9003 ft | 213 kts | 142° |
| 2026-04-18 04:24 | -14.92356 | -75.27264 | 9005 ft | 213 kts | 142° |
| 2026-04-18 04:24 | -14.93527 | -75.26328 | 9004 ft | 213 kts | 142° |
| 2026-04-18 04:24 | -14.94699 | -75.25392 | 9004 ft | 213 kts | 142° |
| 2026-04-18 04:25 | -14.95869 | -75.24457 | 9004 ft | 213 kts | 142° |
| 2026-04-18 04:25 | -14.97040 | -75.23521 | 9004 ft | 213 kts | 142° |
| 2026-04-18 04:25 | -14.98210 | -75.22585 | 9005 ft | 212 kts | 142° |
| 2026-04-18 04:25 | -14.99379 | -75.21651 | 9005 ft | 213 kts | 142° |
| 2026-04-18 04:26 | -15.00534 | -75.20727 | 9013 ft | 213 kts | 142° |
| 2026-04-18 04:26 | -15.01706 | -75.19790 | 9013 ft | 213 kts | 142° |
| 2026-04-18 04:26 | -15.02878 | -75.18853 | 9011 ft | 213 kts | 142° |
| 2026-04-18 04:26 | -15.04051 | -75.17915 | 9010 ft | 213 kts | 142° |
| 2026-04-18 04:27 | -15.05223 | -75.16977 | 9013 ft | 213 kts | 142° |
| 2026-04-18 04:27 | -15.06395 | -75.16039 | 9013 ft | 213 kts | 142° |
| 2026-04-18 04:27 | -15.07567 | -75.15101 | 9013 ft | 213 kts | 142° |
| 2026-04-18 04:27 | -15.08739 | -75.14163 | 9014 ft | 213 kts | 142° |
| 2026-04-18 04:28 | -15.09909 | -75.13226 | 9017 ft | 213 kts | 142° |
| 2026-04-18 04:28 | -15.11066 | -75.12300 | 9016 ft | 213 kts | 142° |
| 2026-04-18 04:28 | -15.12238 | -75.11362 | 9015 ft | 213 kts | 142° |
| 2026-04-18 04:28 | -15.13408 | -75.10424 | 9016 ft | 213 kts | 142° |
| 2026-04-18 04:29 | -15.14577 | -75.09487 | 9012 ft | 212 kts | 142° |
| 2026-04-18 04:29 | -15.15742 | -75.08554 | 9010 ft | 212 kts | 142° |
| 2026-04-18 04:29 | -15.16905 | -75.07623 | 9011 ft | 211 kts | 142° |
| 2026-04-18 04:29 | -15.18068 | -75.06692 | 9017 ft | 211 kts | 142° |
| 2026-04-18 04:30 | -15.19234 | -75.05757 | 9025 ft | 212 kts | 142° |
| 2026-04-18 04:30 | -15.20386 | -75.04833 | 9023 ft | 212 kts | 142° |
| 2026-04-18 04:30 | -15.21554 | -75.03897 | 9023 ft | 212 kts | 142° |
| 2026-04-18 04:30 | -15.22723 | -75.02960 | 9024 ft | 212 kts | 142° |
| 2026-04-18 04:31 | -15.23893 | -75.02022 | 9022 ft | 213 kts | 142° |
| 2026-04-18 04:31 | -15.25061 | -75.01085 | 9022 ft | 213 kts | 142° |
| 2026-04-18 04:31 | -15.26231 | -75.00146 | 9021 ft | 213 kts | 142° |
| 2026-04-18 04:31 | -15.27401 | -74.99208 | 9012 ft | 213 kts | 142° |
| 2026-04-18 04:32 | -15.28572 | -74.98269 | 9010 ft | 213 kts | 142° |
| 2026-04-18 04:32 | -15.29726 | -74.97343 | 9009 ft | 213 kts | 142° |
| 2026-04-18 04:32 | -15.30896 | -74.96403 | 9010 ft | 213 kts | 142° |
| 2026-04-18 04:32 | -15.32066 | -74.95464 | 9011 ft | 213 kts | 142° |
| 2026-04-18 04:33 | -15.33236 | -74.94525 | 9012 ft | 213 kts | 142° |
| 2026-04-18 04:33 | -15.34407 | -74.93585 | 9013 ft | 213 kts | 142° |
| 2026-04-18 04:33 | -15.35576 | -74.92646 | 9011 ft | 213 kts | 142° |
| 2026-04-18 04:33 | -15.36747 | -74.91705 | 9013 ft | 213 kts | 142° |
| 2026-04-18 04:34 | -15.37916 | -74.90765 | 9014 ft | 213 kts | 142° |
| 2026-04-18 04:34 | -15.39070 | -74.89839 | 9013 ft | 213 kts | 142° |
| 2026-04-18 04:34 | -15.40240 | -74.88899 | 9008 ft | 213 kts | 142° |
| 2026-04-18 04:34 | -15.41411 | -74.87958 | 9008 ft | 213 kts | 142° |
| 2026-04-18 04:35 | -15.42580 | -74.87018 | 9005 ft | 213 kts | 142° |
| 2026-04-18 04:35 | -15.43750 | -74.86078 | 9005 ft | 213 kts | 142° |
| 2026-04-18 04:35 | -15.44918 | -74.85137 | 9005 ft | 213 kts | 142° |
| 2026-04-18 04:35 | -15.46089 | -74.84194 | 9006 ft | 213 kts | 142° |
| 2026-04-18 04:36 | -15.47241 | -74.83268 | 9003 ft | 212 kts | 142° |
| 2026-04-18 04:36 | -15.48408 | -74.82334 | 9005 ft | 212 kts | 142° |
| 2026-04-18 04:36 | -15.49573 | -74.81398 | 9005 ft | 212 kts | 142° |
| 2026-04-18 04:36 | -15.50736 | -74.80461 | 9006 ft | 212 kts | 142° |
| 2026-04-18 04:37 | -15.51899 | -74.79522 | 9008 ft | 212 kts | 142° |
| 2026-04-18 04:37 | -15.53062 | -74.78586 | 9008 ft | 212 kts | 142° |
| 2026-04-18 04:37 | -15.54226 | -74.77650 | 9002 ft | 212 kts | 142° |
| 2026-04-18 04:37 | -15.55390 | -74.76715 | 9003 ft | 212 kts | 142° |
| 2026-04-18 04:38 | -15.56537 | -74.75791 | 9002 ft | 212 kts | 142° |
| 2026-04-18 04:38 | -15.57701 | -74.74852 | 9002 ft | 212 kts | 142° |
| 2026-04-18 04:38 | -15.58864 | -74.73914 | 9003 ft | 212 kts | 142° |
| 2026-04-18 04:38 | -15.60028 | -74.72976 | 9002 ft | 212 kts | 142° |
| 2026-04-18 04:39 | -15.61192 | -74.72039 | 9005 ft | 212 kts | 142° |
| 2026-04-18 04:39 | -15.62357 | -74.71102 | 9005 ft | 212 kts | 142° |
| 2026-04-18 04:39 | -15.63520 | -74.70165 | 9006 ft | 212 kts | 142° |
| 2026-04-18 04:39 | -15.64683 | -74.69227 | 9006 ft | 212 kts | 142° |
| 2026-04-18 04:40 | -15.65847 | -74.68288 | 9003 ft | 212 kts | 142° |
| 2026-04-18 04:40 | -15.66994 | -74.67363 | 8997 ft | 212 kts | 142° |
| 2026-04-18 04:40 | -15.68157 | -74.66425 | 8997 ft | 212 kts | 142° |
| 2026-04-18 04:40 | -15.69321 | -74.65487 | 8997 ft | 212 kts | 142° |
| 2026-04-18 04:41 | -15.69635 | -74.65233 | 8997 ft | 212 kts | 142° |
| 2026-04-18 04:41 | -15.70819 | -74.64279 | 8991 ft | 212 kts | 142° |
| 2026-04-18 04:41 | -15.71984 | -74.63339 | 8996 ft | 212 kts | 142° |
| 2026-04-18 04:41 | -15.73146 | -74.62401 | 8998 ft | 212 kts | 142° |
| 2026-04-18 04:42 | -15.74310 | -74.61461 | 8999 ft | 212 kts | 142° |
| 2026-04-18 04:42 | -15.75459 | -74.60535 | 8999 ft | 212 kts | 142° |
| 2026-04-18 04:42 | -15.76621 | -74.59596 | 9000 ft | 212 kts | 142° |
| 2026-04-18 04:42 | -15.77785 | -74.58657 | 8997 ft | 212 kts | 142° |
| 2026-04-18 04:43 | -15.78948 | -74.57717 | 8997 ft | 212 kts | 142° |
| 2026-04-18 04:43 | -15.80109 | -74.56777 | 8997 ft | 211 kts | 142° |
| 2026-04-18 04:43 | -15.81270 | -74.55841 | 8997 ft | 211 kts | 143° |
| 2026-04-18 04:43 | -15.82430 | -74.54906 | 8997 ft | 211 kts | 143° |
| 2026-04-18 04:44 | -15.83592 | -74.53971 | 8995 ft | 212 kts | 142° |
| 2026-04-18 04:44 | -15.84739 | -74.53042 | 8995 ft | 211 kts | 142° |
| 2026-04-18 04:44 | -15.85897 | -74.52101 | 8995 ft | 212 kts | 142° |
| 2026-04-18 04:44 | -15.87064 | -74.51160 | 8994 ft | 213 kts | 142° |
| 2026-04-18 04:45 | -15.88234 | -74.50216 | 8997 ft | 213 kts | 142° |
| 2026-04-18 04:45 | -15.89396 | -74.49273 | 8998 ft | 211 kts | 142° |
| 2026-04-18 04:45 | -15.90559 | -74.48333 | 9000 ft | 212 kts | 142° |
| 2026-04-18 04:45 | -15.91725 | -74.47393 | 9000 ft | 211 kts | 142° |
| 2026-04-18 04:46 | -15.92880 | -74.46457 | 8992 ft | 211 kts | 142° |
| 2026-04-18 04:46 | -15.94024 | -74.45531 | 8990 ft | 212 kts | 142° |
| 2026-04-18 04:46 | -15.95186 | -74.44592 | 8990 ft | 212 kts | 142° |
| 2026-04-18 04:46 | -15.96350 | -74.43651 | 8989 ft | 211 kts | 142° |
| 2026-04-18 04:47 | -15.97504 | -74.42714 | 8988 ft | 212 kts | 142° |
| 2026-04-18 04:47 | -15.98674 | -74.41767 | 8990 ft | 212 kts | 142° |
| 2026-04-18 04:47 | -15.99839 | -74.40825 | 8991 ft | 213 kts | 142° |
| 2026-04-18 04:47 | -16.01002 | -74.39882 | 8992 ft | 211 kts | 142° |
| 2026-04-18 04:48 | -16.02162 | -74.38943 | 8992 ft | 212 kts | 142° |
| 2026-04-18 04:48 | -16.03325 | -74.38002 | 8992 ft | 212 kts | 142° |
| 2026-04-18 04:48 | -16.04468 | -74.37075 | 8992 ft | 211 kts | 142° |
| 2026-04-18 04:48 | -16.05623 | -74.36138 | 8989 ft | 211 kts | 142° |
| 2026-04-18 04:49 | -16.06789 | -74.35200 | 8992 ft | 213 kts | 142° |
| 2026-04-18 04:49 | -16.07957 | -74.34253 | 8992 ft | 213 kts | 142° |
| 2026-04-18 04:49 | -16.09124 | -74.33300 | 8992 ft | 213 kts | 142° |
| 2026-04-18 04:49 | -16.10292 | -74.32349 | 8992 ft | 213 kts | 142° |
| 2026-04-18 04:50 | -16.11465 | -74.31400 | 8988 ft | 214 kts | 142° |
| 2026-04-18 04:50 | -16.12624 | -74.30462 | 8990 ft | 214 kts | 142° |
| 2026-04-18 04:50 | -16.13802 | -74.29510 | 8991 ft | 214 kts | 142° |
| 2026-04-18 04:50 | -16.14978 | -74.28558 | 8991 ft | 214 kts | 142° |
| 2026-04-18 04:51 | -16.16152 | -74.27604 | 8988 ft | 214 kts | 142° |
| 2026-04-18 04:51 | -16.17324 | -74.26649 | 8988 ft | 214 kts | 142° |
| 2026-04-18 04:51 | -16.18498 | -74.25696 | 8988 ft | 214 kts | 142° |
| 2026-04-18 04:51 | -16.19674 | -74.24743 | 8988 ft | 214 kts | 142° |
| 2026-04-18 04:52 | -16.20849 | -74.23790 | 8991 ft | 214 kts | 142° |
| 2026-04-18 04:52 | -16.22027 | -74.22835 | 8991 ft | 215 kts | 142° |
| 2026-04-18 04:52 | -16.23188 | -74.21890 | 8991 ft | 215 kts | 142° |
| 2026-04-18 04:52 | -16.24361 | -74.20933 | 8992 ft | 214 kts | 142° |
| 2026-04-18 04:53 | -16.25537 | -74.19980 | 8988 ft | 215 kts | 142° |
| 2026-04-18 04:53 | -16.26714 | -74.19027 | 8988 ft | 214 kts | 142° |
| 2026-04-18 04:53 | -16.27888 | -74.18072 | 8989 ft | 214 kts | 142° |
| 2026-04-18 04:53 | -16.29062 | -74.17118 | 8989 ft | 214 kts | 142° |
| 2026-04-18 04:54 | -16.30237 | -74.16163 | 8990 ft | 215 kts | 142° |
| 2026-04-18 04:54 | -16.31396 | -74.15219 | 8988 ft | 214 kts | 142° |
| 2026-04-18 04:54 | -16.32572 | -74.14262 | 8988 ft | 215 kts | 142° |
| 2026-04-18 04:54 | -16.33749 | -74.13305 | 8986 ft | 215 kts | 142° |
| 2026-04-18 04:55 | -16.34928 | -74.12348 | 8990 ft | 215 kts | 142° |
| 2026-04-18 04:55 | -16.36104 | -74.11389 | 8990 ft | 214 kts | 142° |
| 2026-04-18 04:55 | -16.37281 | -74.10432 | 8989 ft | 215 kts | 142° |
| 2026-04-18 04:56 | -16.39631 | -74.08518 | 8987 ft | 214 kts | 142° |
| 2026-04-18 04:56 | -16.40789 | -74.07577 | 8988 ft | 214 kts | 142° |
| 2026-04-18 04:56 | -16.41965 | -74.06622 | 8989 ft | 215 kts | 142° |
| 2026-04-18 04:56 | -16.43140 | -74.05663 | 8989 ft | 215 kts | 142° |
| 2026-04-18 04:57 | -16.44320 | -74.04702 | 8991 ft | 216 kts | 142° |
| 2026-04-18 04:57 | -16.45502 | -74.03739 | 8992 ft | 216 kts | 142° |
| 2026-04-18 04:57 | -16.46685 | -74.02773 | 8988 ft | 216 kts | 142° |
| 2026-04-18 04:57 | -16.47868 | -74.01809 | 8987 ft | 216 kts | 142° |
| 2026-04-18 04:58 | -16.49052 | -74.00846 | 8985 ft | 216 kts | 142° |
| 2026-04-18 04:58 | -16.50220 | -73.99896 | 8988 ft | 216 kts | 142° |
| 2026-04-18 04:58 | -16.51404 | -73.98931 | 8988 ft | 216 kts | 142° |
| 2026-04-18 04:58 | -16.52586 | -73.97965 | 8987 ft | 216 kts | 142° |
| 2026-04-18 04:59 | -16.53768 | -73.96999 | 8985 ft | 216 kts | 142° |
| 2026-04-18 04:59 | -16.54953 | -73.96034 | 8989 ft | 216 kts | 142° |
| 2026-04-18 04:59 | -16.56135 | -73.95071 | 8987 ft | 216 kts | 142° |
| 2026-04-18 04:59 | -16.57319 | -73.94103 | 8988 ft | 216 kts | 142° |
| 2026-04-18 05:00 | -16.58501 | -73.93138 | 8988 ft | 216 kts | 142° |
| 2026-04-18 05:00 | -16.59669 | -73.92186 | 8989 ft | 216 kts | 142° |
| 2026-04-18 05:00 | -16.60851 | -73.91222 | 8991 ft | 216 kts | 142° |
| 2026-04-18 05:00 | -16.62033 | -73.90256 | 8992 ft | 216 kts | 142° |
| 2026-04-18 05:01 | -16.63214 | -73.89290 | 8993 ft | 216 kts | 142° |
| 2026-04-18 05:01 | -16.64397 | -73.88323 | 8990 ft | 216 kts | 142° |
| 2026-04-18 05:01 | -16.65581 | -73.87355 | 8989 ft | 216 kts | 142° |
| 2026-04-18 05:01 | -16.66764 | -73.86389 | 8989 ft | 216 kts | 142° |
| 2026-04-18 05:02 | -16.67949 | -73.85421 | 8988 ft | 216 kts | 142° |
| 2026-04-18 05:02 | -16.69116 | -73.84466 | 8993 ft | 216 kts | 142° |
| 2026-04-18 05:02 | -16.70301 | -73.83498 | 8993 ft | 216 kts | 142° |
| 2026-04-18 05:02 | -16.71483 | -73.82530 | 8996 ft | 216 kts | 142° |
| 2026-04-18 05:03 | -16.72666 | -73.81563 | 8998 ft | 216 kts | 142° |
| 2026-04-18 05:03 | -16.73849 | -73.80595 | 8994 ft | 216 kts | 142° |
| 2026-04-18 05:03 | -16.75034 | -73.79626 | 8994 ft | 217 kts | 142° |
| 2026-04-18 05:03 | -16.76226 | -73.78652 | 8995 ft | 218 kts | 142° |
| 2026-04-18 05:04 | -16.77416 | -73.77676 | 8993 ft | 217 kts | 142° |
| 2026-04-18 05:04 | -16.78589 | -73.76714 | 8995 ft | 218 kts | 142° |
| 2026-04-18 05:04 | -16.79778 | -73.75740 | 8995 ft | 217 kts | 142° |
| 2026-04-18 05:04 | -16.80969 | -73.74767 | 8995 ft | 217 kts | 142° |
| 2026-04-18 05:05 | -16.82158 | -73.73793 | 8995 ft | 218 kts | 142° |
| 2026-04-18 05:05 | -16.83349 | -73.72817 | 8993 ft | 218 kts | 142° |
| 2026-04-18 05:05 | -16.84541 | -73.71841 | 8994 ft | 218 kts | 142° |
| 2026-04-18 05:05 | -16.85732 | -73.70865 | 8993 ft | 218 kts | 142° |
| 2026-04-18 05:06 | -16.86926 | -73.69886 | 8994 ft | 218 kts | 142° |
| 2026-04-18 05:06 | -16.88101 | -73.68923 | 8996 ft | 218 kts | 142° |
| 2026-04-18 05:06 | -16.89292 | -73.67947 | 8996 ft | 218 kts | 142° |
| 2026-04-18 05:06 | -16.90484 | -73.66969 | 8996 ft | 218 kts | 142° |
| 2026-04-18 05:07 | -16.91674 | -73.65993 | 8993 ft | 217 kts | 142° |
| 2026-04-18 05:07 | -16.92864 | -73.65017 | 8991 ft | 217 kts | 142° |
| 2026-04-18 05:07 | -16.94053 | -73.64042 | 8998 ft | 217 kts | 142° |
| 2026-04-18 05:07 | -16.95243 | -73.63065 | 8997 ft | 217 kts | 142° |
| 2026-04-18 05:08 | -16.96415 | -73.62102 | 8995 ft | 218 kts | 142° |
| 2026-04-18 05:08 | -16.97605 | -73.61126 | 8996 ft | 218 kts | 142° |
| 2026-04-18 05:08 | -16.98795 | -73.60150 | 8993 ft | 218 kts | 142° |
| 2026-04-18 05:08 | -16.99986 | -73.59172 | 8994 ft | 217 kts | 142° |
| 2026-04-18 05:09 | -17.01174 | -73.58196 | 8999 ft | 217 kts | 142° |
| 2026-04-18 05:09 | -17.02363 | -73.57220 | 8999 ft | 217 kts | 142° |
| 2026-04-18 05:09 | -17.03552 | -73.56242 | 8997 ft | 217 kts | 142° |
| 2026-04-18 05:09 | -17.04725 | -73.55279 | 8997 ft | 217 kts | 142° |
| 2026-04-18 05:10 | -17.05915 | -73.54301 | 8996 ft | 218 kts | 142° |
| 2026-04-18 05:10 | -17.07107 | -73.53319 | 8996 ft | 219 kts | 142° |
| 2026-04-18 05:10 | -17.08304 | -73.52335 | 8998 ft | 219 kts | 142° |
| 2026-04-18 05:10 | -17.09505 | -73.51350 | 8997 ft | 220 kts | 142° |
| 2026-04-18 05:11 | -17.10706 | -73.50366 | 9000 ft | 219 kts | 142° |
| 2026-04-18 05:11 | -17.11904 | -73.49381 | 8997 ft | 219 kts | 142° |
| 2026-04-18 05:11 | -17.13101 | -73.48392 | 8996 ft | 220 kts | 142° |
| 2026-04-18 05:11 | -17.14280 | -73.47421 | 8997 ft | 219 kts | 142° |
| 2026-04-18 05:12 | -17.15476 | -73.46437 | 8996 ft | 219 kts | 142° |
| 2026-04-18 05:12 | -17.16672 | -73.45453 | 8998 ft | 219 kts | 142° |
| 2026-04-18 05:12 | -17.17870 | -73.44468 | 8998 ft | 219 kts | 142° |
| 2026-04-18 05:12 | -17.19066 | -73.43485 | 8998 ft | 219 kts | 142° |
| 2026-04-18 05:13 | -17.20263 | -73.42498 | 9000 ft | 219 kts | 142° |
| 2026-04-18 05:13 | -17.21462 | -73.41509 | 8998 ft | 220 kts | 142° |
| 2026-04-18 05:13 | -17.22647 | -73.40534 | 8998 ft | 219 kts | 142° |
| 2026-04-18 05:13 | -17.23845 | -73.39549 | 8998 ft | 219 kts | 142° |
| 2026-04-18 05:14 | -17.25043 | -73.38559 | 8998 ft | 219 kts | 142° |
| 2026-04-18 05:14 | -17.26240 | -73.37574 | 8999 ft | 219 kts | 142° |
| 2026-04-18 05:14 | -17.27434 | -73.36590 | 8999 ft | 219 kts | 142° |
| 2026-04-18 05:14 | -17.28631 | -73.35601 | 9001 ft | 219 kts | 142° |
| 2026-04-18 05:15 | -17.29830 | -73.34613 | 8998 ft | 219 kts | 142° |
| 2026-04-18 05:15 | -17.31026 | -73.33628 | 8998 ft | 220 kts | 142° |
| 2026-04-18 05:15 | -17.32210 | -73.32651 | 9000 ft | 220 kts | 142° |
| 2026-04-18 05:15 | -17.33410 | -73.31663 | 9001 ft | 219 kts | 142° |
| 2026-04-18 05:16 | -17.34607 | -73.30676 | 9001 ft | 219 kts | 142° |
| 2026-04-18 05:16 | -17.35802 | -73.29690 | 8999 ft | 218 kts | 142° |
| 2026-04-18 05:16 | -17.36991 | -73.28708 | 8998 ft | 218 kts | 141° |
| 2026-04-18 05:16 | -17.38178 | -73.27721 | 9000 ft | 218 kts | 141° |
| 2026-04-18 05:17 | -17.39369 | -73.26734 | 8999 ft | 218 kts | 142° |
| 2026-04-18 05:17 | -17.40549 | -73.25764 | 8999 ft | 219 kts | 142° |
| 2026-04-18 05:17 | -17.41747 | -73.24783 | 9001 ft | 219 kts | 142° |
| 2026-04-18 05:17 | -17.42942 | -73.23797 | 9000 ft | 219 kts | 142° |
| 2026-04-18 05:18 | -17.44136 | -73.22806 | 9001 ft | 219 kts | 142° |
| 2026-04-18 05:18 | -17.45332 | -73.21815 | 8999 ft | 219 kts | 142° |
| 2026-04-18 05:18 | -17.46526 | -73.20829 | 8999 ft | 219 kts | 142° |
| 2026-04-18 05:18 | -17.47722 | -73.19841 | 8999 ft | 219 kts | 142° |
| 2026-04-18 05:19 | -17.48915 | -73.18855 | 9002 ft | 218 kts | 142° |
| 2026-04-18 05:19 | -17.50092 | -73.17882 | 9001 ft | 219 kts | 142° |
| 2026-04-18 05:19 | -17.51286 | -73.16893 | 9000 ft | 219 kts | 142° |
| 2026-04-18 05:19 | -17.52481 | -73.15905 | 9001 ft | 219 kts | 142° |
| 2026-04-18 05:20 | -17.53675 | -73.14918 | 8999 ft | 219 kts | 142° |
| 2026-04-18 05:20 | -17.54872 | -73.13927 | 9001 ft | 219 kts | 142° |
| 2026-04-18 05:20 | -17.56069 | -73.12936 | 9001 ft | 219 kts | 142° |
| 2026-04-18 05:20 | -17.57266 | -73.11947 | 9001 ft | 219 kts | 142° |
| 2026-04-18 05:21 | -17.58460 | -73.10957 | 8994 ft | 219 kts | 142° |
| 2026-04-18 05:21 | -17.59639 | -73.09980 | 9002 ft | 219 kts | 142° |
| 2026-04-18 05:21 | -17.60833 | -73.08992 | 8994 ft | 218 kts | 142° |
| 2026-04-18 05:21 | -17.62027 | -73.08003 | 8999 ft | 219 kts | 142° |
| 2026-04-18 05:22 | -17.63221 | -73.07012 | 8998 ft | 219 kts | 142° |
| 2026-04-18 05:22 | -17.64417 | -73.06022 | 8995 ft | 219 kts | 142° |
| 2026-04-18 05:22 | -17.65613 | -73.05032 | 8999 ft | 220 kts | 142° |
| 2026-04-18 05:22 | -17.66811 | -73.04039 | 8991 ft | 219 kts | 142° |
| 2026-04-18 05:23 | -17.67992 | -73.03060 | 9001 ft | 220 kts | 142° |
| 2026-04-18 05:23 | -17.69188 | -73.02066 | 9015 ft | 220 kts | 142° |
| 2026-04-18 05:23 | -17.70394 | -73.01062 | 8995 ft | 222 kts | 142° |
| 2026-04-18 05:23 | -17.71604 | -73.00064 | 9005 ft | 221 kts | 142° |
| 2026-04-18 05:24 | -17.72809 | -72.99069 | 8998 ft | 220 kts | 142° |
| 2026-04-18 05:24 | -17.74010 | -72.98069 | 8995 ft | 221 kts | 142° |
| 2026-04-18 05:24 | -17.75215 | -72.97063 | 9001 ft | 221 kts | 142° |
| 2026-04-18 05:24 | -17.76419 | -72.96065 | 9001 ft | 221 kts | 142° |
| 2026-04-18 05:25 | -17.77611 | -72.95075 | 9001 ft | 222 kts | 142° |
| 2026-04-18 05:25 | -17.78821 | -72.94079 | 9000 ft | 220 kts | 142° |
| 2026-04-18 05:25 | -17.80022 | -72.93082 | 9002 ft | 219 kts | 141° |
| 2026-04-18 05:25 | -17.81216 | -72.92083 | 9001 ft | 220 kts | 141° |
| 2026-04-18 05:26 | -17.82412 | -72.91083 | 8996 ft | 219 kts | 141° |
| 2026-04-18 05:26 | -17.83608 | -72.90091 | 8999 ft | 219 kts | 142° |
| 2026-04-18 05:26 | -17.84808 | -72.89100 | 8997 ft | 219 kts | 142° |
| 2026-04-18 05:26 | -17.85990 | -72.88120 | 9000 ft | 220 kts | 142° |
| 2026-04-18 05:27 | -17.87188 | -72.87123 | 9001 ft | 219 kts | 141° |
| 2026-04-18 05:27 | -17.88384 | -72.86124 | 9000 ft | 220 kts | 141° |
| 2026-04-18 05:27 | -17.89584 | -72.85125 | 9000 ft | 220 kts | 142° |
| 2026-04-18 05:27 | -17.90786 | -72.84127 | 9001 ft | 220 kts | 142° |
| 2026-04-18 05:28 | -17.91983 | -72.83133 | 8998 ft | 220 kts | 142° |
| 2026-04-18 05:28 | -17.93182 | -72.82135 | 9004 ft | 220 kts | 142° |
| 2026-04-18 05:28 | -17.94379 | -72.81138 | 8994 ft | 219 kts | 141° |
| 2026-04-18 05:28 | -17.95557 | -72.80157 | 9002 ft | 219 kts | 141° |
| 2026-04-18 05:29 | -17.96753 | -72.79160 | 8997 ft | 220 kts | 142° |
| 2026-04-18 05:29 | -17.97952 | -72.78161 | 9004 ft | 220 kts | 142° |
| 2026-04-18 05:29 | -17.99151 | -72.77165 | 9004 ft | 220 kts | 142° |
| 2026-04-18 05:29 | -18.00351 | -72.76164 | 9003 ft | 220 kts | 142° |
| 2026-04-18 05:30 | -18.01550 | -72.75166 | 9002 ft | 220 kts | 142° |
| 2026-04-18 05:30 | -18.02750 | -72.74166 | 9003 ft | 220 kts | 142° |
| 2026-04-18 05:30 | -18.03947 | -72.73168 | 9001 ft | 220 kts | 142° |
| 2026-04-18 05:30 | -18.05129 | -72.72182 | 9003 ft | 220 kts | 142° |
| 2026-04-18 05:31 | -18.06325 | -72.71186 | 9005 ft | 219 kts | 141° |
| 2026-04-18 05:31 | -18.07518 | -72.70191 | 9003 ft | 219 kts | 141° |
| 2026-04-18 05:31 | -18.08716 | -72.69190 | 9004 ft | 220 kts | 141° |
| 2026-04-18 05:31 | -18.09912 | -72.68192 | 9005 ft | 220 kts | 141° |
| 2026-04-18 05:32 | -18.11109 | -72.67194 | 9002 ft | 220 kts | 141° |
| 2026-04-18 05:32 | -18.12310 | -72.66192 | 9006 ft | 220 kts | 141° |
| 2026-04-18 05:32 | -18.13509 | -72.65192 | 9003 ft | 220 kts | 141° |
| 2026-04-18 05:32 | -18.14707 | -72.64192 | 9003 ft | 220 kts | 141° |
| 2026-04-18 05:33 | -18.15887 | -72.63205 | 9001 ft | 220 kts | 141° |
| 2026-04-18 05:33 | -18.17083 | -72.62206 | 8994 ft | 220 kts | 141° |
| 2026-04-18 05:33 | -18.18279 | -72.61208 | 9003 ft | 219 kts | 141° |
| 2026-04-18 05:33 | -18.19476 | -72.60209 | 8999 ft | 220 kts | 141° |
| 2026-04-18 05:34 | -18.20666 | -72.59215 | 9008 ft | 218 kts | 141° |
| 2026-04-18 05:34 | -18.21854 | -72.58222 | 9007 ft | 218 kts | 141° |
| 2026-04-18 05:34 | -18.23040 | -72.57228 | 9005 ft | 218 kts | 141° |
| 2026-04-18 05:34 | -18.24210 | -72.56249 | 8999 ft | 218 kts | 141° |
| 2026-04-18 05:35 | -18.25397 | -72.55258 | 9004 ft | 218 kts | 141° |
| 2026-04-18 05:35 | -18.26584 | -72.54266 | 9004 ft | 218 kts | 141° |
| 2026-04-18 05:35 | -18.27771 | -72.53274 | 9005 ft | 218 kts | 141° |
| 2026-04-18 05:35 | -18.28957 | -72.52281 | 9003 ft | 218 kts | 141° |
| 2026-04-18 05:36 | -18.30144 | -72.51286 | 9003 ft | 219 kts | 141° |
| 2026-04-18 05:36 | -18.31338 | -72.50286 | 9003 ft | 220 kts | 141° |
| 2026-04-18 05:36 | -18.32533 | -72.49288 | 9004 ft | 219 kts | 141° |
| 2026-04-18 05:36 | -18.33713 | -72.48302 | 9004 ft | 220 kts | 141° |
| 2026-04-18 05:37 | -18.34909 | -72.47300 | 9001 ft | 219 kts | 141° |
| 2026-04-18 05:37 | -18.36039 | -72.46223 | 8999 ft | 219 kts | 133° |
| 2026-04-18 05:37 | -18.37043 | -72.45016 | 9003 ft | 219 kts | 130° |
| 2026-04-18 05:37 | -18.38048 | -72.43810 | 9002 ft | 219 kts | 132° |
| 2026-04-18 05:38 | -18.39082 | -72.42635 | 9006 ft | 219 kts | 133° |
| 2026-04-18 05:38 | -18.40140 | -72.41479 | 9003 ft | 219 kts | 134° |
| 2026-04-18 05:38 | -18.41201 | -72.40323 | 9004 ft | 219 kts | 134° |
| 2026-04-18 05:38 | -18.42236 | -72.39174 | 9007 ft | 220 kts | 133° |
| 2026-04-18 05:39 | -18.43279 | -72.37996 | 9009 ft | 220 kts | 133° |
| 2026-04-18 05:39 | -18.44320 | -72.36821 | 9004 ft | 219 kts | 133° |
| 2026-04-18 05:39 | -18.45368 | -72.35650 | 9007 ft | 219 kts | 133° |
| 2026-04-18 05:39 | -18.46417 | -72.34486 | 9007 ft | 220 kts | 133° |
| 2026-04-18 05:40 | -18.47467 | -72.33320 | 9005 ft | 219 kts | 133° |
| 2026-04-18 05:40 | -18.48515 | -72.32150 | 9003 ft | 220 kts | 133° |
| 2026-04-18 05:40 | -18.49207 | -72.31375 | 9005 ft | 220 kts | 133° |
| 2026-04-18 05:40 | -18.50255 | -72.30201 | 9001 ft | 220 kts | 133° |
| 2026-04-18 05:41 | -18.51641 | -72.28652 | 9001 ft | 218 kts | 133° |
| 2026-04-18 05:41 | -18.52678 | -72.27494 | 9003 ft | 217 kts | 133° |
| 2026-04-18 05:41 | -18.53712 | -72.26340 | 9005 ft | 216 kts | 133° |
| 2026-04-18 05:41 | -18.54737 | -72.25193 | 9004 ft | 214 kts | 133° |
| 2026-04-18 05:42 | -18.55752 | -72.24055 | 9008 ft | 212 kts | 133° |
| 2026-04-18 05:42 | -18.56422 | -72.23306 | 9007 ft | 212 kts | 133° |
| 2026-04-18 05:42 | -18.57437 | -72.22174 | 9007 ft | 212 kts | 133° |
| 2026-04-18 05:42 | -18.58449 | -72.21043 | 9001 ft | 212 kts | 133° |
| 2026-04-18 05:43 | -18.59788 | -72.19544 | 9003 ft | 212 kts | 133° |
| 2026-04-18 05:43 | -18.60801 | -72.18408 | 9004 ft | 212 kts | 133° |
| 2026-04-18 05:43 | -18.61813 | -72.17274 | 9002 ft | 213 kts | 133° |
| 2026-04-18 05:43 | -18.62497 | -72.16508 | 9005 ft | 213 kts | 133° |
| 2026-04-18 05:44 | -18.63498 | -72.15388 | 9004 ft | 213 kts | 133° |
| 2026-04-18 05:44 | -18.64512 | -72.14254 | 9005 ft | 213 kts | 133° |
| 2026-04-18 05:44 | -18.65525 | -72.13118 | 9007 ft | 213 kts | 133° |
| 2026-04-18 05:44 | -18.66539 | -72.11982 | 9001 ft | 213 kts | 133° |
| 2026-04-18 05:45 | -18.67881 | -72.10478 | 9008 ft | 213 kts | 133° |
| 2026-04-18 05:45 | -18.68895 | -72.09341 | 9007 ft | 213 kts | 133° |
| 2026-04-18 05:45 | -18.69909 | -72.08204 | 9007 ft | 213 kts | 133° |
| 2026-04-18 05:45 | -18.70582 | -72.07450 | 9005 ft | 213 kts | 133° |
| 2026-04-18 05:46 | -18.71595 | -72.06313 | 9003 ft | 213 kts | 133° |
| 2026-04-18 05:46 | -18.72609 | -72.05176 | 9002 ft | 213 kts | 133° |
| 2026-04-18 05:46 | -18.73622 | -72.04039 | 9003 ft | 213 kts | 133° |
| 2026-04-18 05:46 | -18.74636 | -72.02901 | 9003 ft | 213 kts | 133° |
| 2026-04-18 05:47 | -18.75649 | -72.01765 | 9001 ft | 213 kts | 133° |
| 2026-04-18 05:47 | -18.76991 | -72.00258 | 9001 ft | 213 kts | 133° |
| 2026-04-18 05:47 | -18.77676 | -71.99489 | 9006 ft | 213 kts | 133° |
| 2026-04-18 05:47 | -18.78689 | -71.98350 | 9004 ft | 213 kts | 133° |
| 2026-04-18 05:48 | -18.79688 | -71.97229 | 9002 ft | 213 kts | 133° |
| 2026-04-18 05:48 | -18.80700 | -71.96092 | 9003 ft | 213 kts | 133° |
| 2026-04-18 05:48 | -18.81713 | -71.94954 | 9003 ft | 213 kts | 133° |
| 2026-04-18 05:48 | -18.82727 | -71.93815 | 9004 ft | 213 kts | 133° |
| 2026-04-18 05:49 | -18.83739 | -71.92676 | 8999 ft | 213 kts | 133° |
| 2026-04-18 05:49 | -18.84751 | -71.91539 | 9005 ft | 213 kts | 133° |
| 2026-04-18 05:49 | -18.85762 | -71.90400 | 9009 ft | 211 kts | 133° |
| 2026-04-18 05:49 | -18.86765 | -71.89269 | 9008 ft | 211 kts | 134° |
| 2026-04-18 05:50 | -18.87771 | -71.88144 | 9001 ft | 211 kts | 134° |
| 2026-04-18 05:50 | -18.88760 | -71.87033 | 9008 ft | 210 kts | 134° |
| 2026-04-18 05:50 | -18.89766 | -71.85900 | 9007 ft | 212 kts | 134° |
| 2026-04-18 05:50 | -18.90777 | -71.84762 | 9007 ft | 212 kts | 133° |
| 2026-04-18 05:51 | -18.91786 | -71.83623 | 9003 ft | 212 kts | 133° |
| 2026-04-18 05:51 | -18.92797 | -71.82485 | 9005 ft | 212 kts | 133° |
| 2026-04-18 05:51 | -18.93808 | -71.81347 | 9003 ft | 212 kts | 133° |
| 2026-04-18 05:51 | -18.94817 | -71.80208 | 9005 ft | 212 kts | 134° |
| 2026-04-18 05:52 | -18.95828 | -71.79070 | 9009 ft | 212 kts | 133° |
| 2026-04-18 05:52 | -18.96824 | -71.77947 | 9009 ft | 212 kts | 134° |
| 2026-04-18 05:52 | -18.97835 | -71.76811 | 9008 ft | 212 kts | 134° |
| 2026-04-18 05:52 | -18.98846 | -71.75673 | 9002 ft | 212 kts | 133° |
| 2026-04-18 05:53 | -18.99856 | -71.74533 | 9010 ft | 213 kts | 133° |
| 2026-04-18 05:53 | -19.00865 | -71.73392 | 9006 ft | 213 kts | 133° |
| 2026-04-18 05:53 | -19.01875 | -71.72249 | 9006 ft | 212 kts | 133° |
| 2026-04-18 05:53 | -19.02886 | -71.71111 | 8999 ft | 212 kts | 134° |
| 2026-04-18 05:54 | -19.03883 | -71.69988 | 9002 ft | 212 kts | 134° |
| 2026-04-18 05:54 | -19.04894 | -71.68849 | 9003 ft | 212 kts | 134° |
| 2026-04-18 05:54 | -19.05905 | -71.67710 | 9004 ft | 212 kts | 133° |
| 2026-04-18 05:54 | -19.06913 | -71.66569 | 9005 ft | 212 kts | 133° |
| 2026-04-18 05:55 | -19.07922 | -71.65428 | 9004 ft | 213 kts | 133° |
| 2026-04-18 05:55 | -19.08932 | -71.64287 | 9005 ft | 212 kts | 133° |
| 2026-04-18 05:55 | -19.09940 | -71.63146 | 9005 ft | 212 kts | 134° |
| 2026-04-18 05:55 | -19.10952 | -71.62007 | 8997 ft | 212 kts | 134° |
| 2026-04-18 05:56 | -19.11948 | -71.60881 | 9004 ft | 212 kts | 134° |
| 2026-04-18 05:56 | -19.12957 | -71.59742 | 9008 ft | 212 kts | 134° |
| 2026-04-18 05:56 | -19.13967 | -71.58602 | 9008 ft | 212 kts | 133° |
| 2026-04-18 05:56 | -19.14976 | -71.57458 | 9003 ft | 213 kts | 133° |
| 2026-04-18 05:57 | -19.16992 | -71.55174 | 9003 ft | 212 kts | 133° |
| 2026-04-18 05:57 | -19.18000 | -71.54034 | 9002 ft | 213 kts | 134° |
| 2026-04-18 05:57 | -19.19013 | -71.52889 | 9001 ft | 214 kts | 134° |
| 2026-04-18 05:58 | -19.20015 | -71.51758 | 9005 ft | 214 kts | 134° |
| 2026-04-18 05:58 | -19.21034 | -71.50615 | 9003 ft | 213 kts | 134° |
| 2026-04-18 05:58 | -19.22045 | -71.49463 | 9004 ft | 214 kts | 134° |
| 2026-04-18 05:58 | -19.23056 | -71.48314 | 9005 ft | 213 kts | 134° |
| 2026-04-18 05:59 | -19.24067 | -71.47163 | 9006 ft | 213 kts | 134° |
| 2026-04-18 05:59 | -19.25080 | -71.46013 | 9003 ft | 214 kts | 134° |
| 2026-04-18 05:59 | -19.26098 | -71.44867 | 9004 ft | 214 kts | 134° |
| 2026-04-18 05:59 | -19.27112 | -71.43721 | 9005 ft | 214 kts | 134° |
| 2026-04-18 06:00 | -19.28113 | -71.42586 | 9015 ft | 213 kts | 134° |
| 2026-04-18 06:00 | -19.29126 | -71.41438 | 9005 ft | 214 kts | 134° |
| 2026-04-18 06:00 | -19.30136 | -71.40287 | 9008 ft | 213 kts | 134° |
| 2026-04-18 06:00 | -19.31152 | -71.39140 | 9003 ft | 213 kts | 134° |
| 2026-04-18 06:01 | -19.32162 | -71.37990 | 9008 ft | 214 kts | 134° |
| 2026-04-18 06:01 | -19.33176 | -71.36838 | 9001 ft | 214 kts | 134° |
| 2026-04-18 06:01 | -19.34190 | -71.35687 | 9003 ft | 214 kts | 134° |
| 2026-04-18 06:01 | -19.35206 | -71.34537 | 9007 ft | 214 kts | 134° |
| 2026-04-18 06:02 | -19.36209 | -71.33404 | 9007 ft | 214 kts | 134° |
| 2026-04-18 06:02 | -19.37221 | -71.32251 | 9008 ft | 214 kts | 134° |
| 2026-04-18 06:02 | -19.38233 | -71.31100 | 9007 ft | 214 kts | 134° |
| 2026-04-18 06:02 | -19.39245 | -71.29948 | 9006 ft | 214 kts | 134° |
| 2026-04-18 06:03 | -19.40256 | -71.28795 | 9011 ft | 214 kts | 134° |
| 2026-04-18 06:03 | -19.41272 | -71.27646 | 9011 ft | 214 kts | 134° |
| 2026-04-18 06:03 | -19.42285 | -71.26494 | 9010 ft | 214 kts | 134° |
| 2026-04-18 06:03 | -19.43300 | -71.25344 | 9006 ft | 214 kts | 134° |
| 2026-04-18 06:04 | -19.44315 | -71.24195 | 9009 ft | 214 kts | 134° |
| 2026-04-18 06:04 | -19.45311 | -71.23055 | 9011 ft | 214 kts | 134° |
| 2026-04-18 06:04 | -19.46322 | -71.21903 | 9011 ft | 214 kts | 133° |
| 2026-04-18 06:04 | -19.47335 | -71.20745 | 9011 ft | 215 kts | 134° |
| 2026-04-18 06:05 | -19.48357 | -71.19584 | 9009 ft | 215 kts | 134° |
| 2026-04-18 06:05 | -19.49381 | -71.18424 | 9011 ft | 216 kts | 134° |
| 2026-04-18 06:05 | -19.50405 | -71.17260 | 9010 ft | 216 kts | 134° |
| 2026-04-18 06:05 | -19.51429 | -71.16098 | 9010 ft | 215 kts | 134° |
| 2026-04-18 06:06 | -19.52450 | -71.14931 | 9009 ft | 216 kts | 134° |
| 2026-04-18 06:06 | -19.53456 | -71.13784 | 9009 ft | 215 kts | 134° |
| 2026-04-18 06:06 | -19.54474 | -71.12621 | 9009 ft | 216 kts | 134° |
| 2026-04-18 06:06 | -19.55493 | -71.11453 | 9010 ft | 216 kts | 134° |
| 2026-04-18 06:07 | -19.56517 | -71.10293 | 9005 ft | 216 kts | 134° |
| 2026-04-18 06:07 | -19.57541 | -71.09129 | 9004 ft | 216 kts | 134° |
| 2026-04-18 06:07 | -19.58565 | -71.07966 | 9008 ft | 215 kts | 134° |
| 2026-04-18 06:07 | -19.59584 | -71.06802 | 8999 ft | 216 kts | 134° |
| 2026-04-18 06:08 | -19.60601 | -71.05637 | 9011 ft | 215 kts | 134° |
| 2026-04-18 06:08 | -19.61605 | -71.04490 | 9011 ft | 215 kts | 134° |
| 2026-04-18 06:08 | -19.62622 | -71.03326 | 9011 ft | 216 kts | 134° |
| 2026-04-18 06:08 | -19.63643 | -71.02162 | 9010 ft | 215 kts | 134° |
| 2026-04-18 06:09 | -19.64665 | -71.00997 | 9009 ft | 216 kts | 134° |
| 2026-04-18 06:09 | -19.65689 | -70.99829 | 9011 ft | 216 kts | 134° |
| 2026-04-18 06:09 | -19.66715 | -70.98667 | 9009 ft | 215 kts | 134° |
| 2026-04-18 06:09 | -19.67732 | -70.97499 | 9011 ft | 216 kts | 134° |
| 2026-04-18 06:10 | -19.68750 | -70.96334 | 9010 ft | 215 kts | 133° |
| 2026-04-18 06:10 | -19.69751 | -70.95179 | 9008 ft | 215 kts | 132° |
| 2026-04-18 06:10 | -19.70493 | -70.93812 | 9022 ft | 214 kts | 111° |
| 2026-04-18 06:10 | -19.70973 | -70.92303 | 9010 ft | 217 kts | 108° |
| 2026-04-18 06:11 | -19.71403 | -70.90768 | 9009 ft | 216 kts | 107° |
| 2026-04-18 06:11 | -19.71817 | -70.89230 | 9008 ft | 216 kts | 107° |
| 2026-04-18 06:11 | -19.72268 | -70.87711 | 9009 ft | 216 kts | 109° |
| 2026-04-18 06:11 | -19.72777 | -70.86218 | 9009 ft | 215 kts | 111° |
| 2026-04-18 06:12 | -19.73320 | -70.84737 | 9011 ft | 215 kts | 112° |
| 2026-04-18 06:12 | -19.73860 | -70.83280 | 9011 ft | 215 kts | 112° |
| 2026-04-18 06:12 | -19.74391 | -70.81796 | 9011 ft | 215 kts | 111° |
| 2026-04-18 06:12 | -19.74909 | -70.80304 | 9011 ft | 215 kts | 110° |
| 2026-04-18 06:13 | -19.75424 | -70.78809 | 9009 ft | 216 kts | 111° |
| 2026-04-18 06:13 | -19.75951 | -70.77314 | 9008 ft | 217 kts | 111° |
| 2026-04-18 06:13 | -19.76488 | -70.75821 | 9009 ft | 216 kts | 112° |
| 2026-04-18 06:13 | -19.77024 | -70.74333 | 9009 ft | 216 kts | 111° |
| 2026-04-18 06:14 | -19.77546 | -70.72862 | 9009 ft | 216 kts | 111° |
| 2026-04-18 06:14 | -19.78066 | -70.71367 | 9009 ft | 216 kts | 111° |
| 2026-04-18 06:14 | -19.78590 | -70.69872 | 9009 ft | 216 kts | 111° |
| 2026-04-18 06:14 | -19.79120 | -70.68376 | 9007 ft | 216 kts | 111° |
| 2026-04-18 06:15 | -19.79654 | -70.66886 | 9009 ft | 216 kts | 111° |
| 2026-04-18 06:15 | -19.80184 | -70.65396 | 9010 ft | 215 kts | 111° |
| 2026-04-18 06:15 | -19.80706 | -70.63904 | 9010 ft | 216 kts | 111° |
| 2026-04-18 06:15 | -19.81230 | -70.62407 | 9010 ft | 217 kts | 111° |
| 2026-04-18 06:16 | -19.81754 | -70.60926 | 9012 ft | 218 kts | 111° |
| 2026-04-18 06:16 | -19.82283 | -70.59439 | 8950 ft | 214 kts | 111° |
| 2026-04-18 06:16 | -19.82815 | -70.57943 | 8625 ft | 222 kts | 111° |
| 2026-04-18 06:16 | -19.83363 | -70.56385 | 8343 ft | 225 kts | 111° |
| 2026-04-18 06:17 | -19.83905 | -70.54833 | 8153 ft | 224 kts | 111° |
| 2026-04-18 06:17 | -19.84448 | -70.53281 | 7951 ft | 222 kts | 111° |
| 2026-04-18 06:17 | -19.84993 | -70.51749 | 7763 ft | 221 kts | 111° |
| 2026-04-18 06:17 | -19.85536 | -70.50222 | 7576 ft | 221 kts | 111° |
| 2026-04-18 06:18 | -19.86066 | -70.48714 | 7404 ft | 220 kts | 111° |
| 2026-04-18 06:18 | -19.86600 | -70.47188 | 7225 ft | 220 kts | 111° |
| 2026-04-18 06:18 | -19.87133 | -70.45663 | 7052 ft | 220 kts | 111° |
| 2026-04-18 06:18 | -19.87673 | -70.44142 | 6886 ft | 220 kts | 111° |
| 2026-04-18 06:19 | -19.88211 | -70.42623 | 6728 ft | 220 kts | 111° |
| 2026-04-18 06:19 | -19.88743 | -70.41102 | 6550 ft | 220 kts | 111° |
| 2026-04-18 06:19 | -19.89280 | -70.39563 | 6302 ft | 224 kts | 111° |
| 2026-04-18 06:19 | -19.89824 | -70.38012 | 6092 ft | 224 kts | 111° |
| 2026-04-18 06:20 | -19.90367 | -70.36487 | 5900 ft | 224 kts | 111° |
| 2026-04-18 06:20 | -19.90912 | -70.34943 | 5720 ft | 223 kts | 111° |
| 2026-04-18 06:20 | -19.91451 | -70.33397 | 5527 ft | 223 kts | 111° |
| 2026-04-18 06:20 | -19.91987 | -70.31850 | 5336 ft | 223 kts | 111° |
| 2026-04-18 06:21 | -19.92527 | -70.30306 | 5172 ft | 223 kts | 111° |
| 2026-04-18 06:21 | -19.93075 | -70.28768 | 5005 ft | 223 kts | 111° |
| 2026-04-18 06:21 | -19.93607 | -70.27260 | 5034 ft | 214 kts | 111° |
| 2026-04-18 06:21 | -19.94117 | -70.25798 | 5052 ft | 209 kts | 111° |
| 2026-04-18 06:22 | -19.94611 | -70.24376 | 5050 ft | 207 kts | 111° |
| 2026-04-18 06:22 | -19.95109 | -70.22950 | 5051 ft | 205 kts | 111° |
| 2026-04-18 06:22 | -19.95793 | -70.21643 | 5065 ft | 203 kts | 134° |
| 2026-04-18 06:22 | -19.96970 | -70.20865 | 5056 ft | 201 kts | 164° |
| 2026-04-18 06:23 | -19.98354 | -70.20733 | 5042 ft | 200 kts | 181° |
| 2026-04-18 06:23 | -19.99743 | -70.20791 | 5045 ft | 200 kts | 184° |
| 2026-04-18 06:23 | -20.01136 | -70.20869 | 5051 ft | 200 kts | 183° |
| 2026-04-18 06:23 | -20.02561 | -70.20895 | 4824 ft | 211 kts | 180° |
| 2026-04-18 06:24 | -20.04029 | -70.20865 | 4638 ft | 215 kts | 179° |
| 2026-04-18 06:24 | -20.05523 | -70.20818 | 4524 ft | 215 kts | 179° |
| 2026-04-18 06:24 | -20.07014 | -70.20783 | 4415 ft | 214 kts | 179° |
| 2026-04-18 06:24 | -20.08491 | -70.20762 | 4299 ft | 210 kts | 180° |
| 2026-04-18 06:25 | -20.09944 | -70.20747 | 4155 ft | 208 kts | 180° |
| 2026-04-18 06:25 | -20.11391 | -70.20724 | 3983 ft | 208 kts | 179° |
| 2026-04-18 06:25 | -20.12838 | -70.20691 | 3825 ft | 208 kts | 178° |
| 2026-04-18 06:25 | -20.14230 | -70.20400 | 3649 ft | 208 kts | 155° |
| 2026-04-18 06:26 | -20.15466 | -70.19625 | 3569 ft | 206 kts | 147° |
| 2026-04-18 06:26 | -20.16651 | -70.18776 | 3505 ft | 203 kts | 145° |
| 2026-04-18 06:26 | -20.17795 | -70.17943 | 3531 ft | 197 kts | 147° |
| 2026-04-18 06:26 | -20.18963 | -70.17208 | 3549 ft | 193 kts | 151° |
| 2026-04-18 06:27 | -20.20154 | -70.16557 | 3536 ft | 193 kts | 153° |
| 2026-04-18 06:27 | -20.21385 | -70.16017 | 3540 ft | 191 kts | 168° |
| 2026-04-18 06:27 | -20.22701 | -70.16020 | 3549 ft | 190 kts | 185° |
| 2026-04-18 06:27 | -20.23995 | -70.16196 | 3533 ft | 190 kts | 187° |
| 2026-04-18 06:28 | -20.25302 | -70.16405 | 3544 ft | 189 kts | 188° |
| 2026-04-18 06:28 | -20.26607 | -70.16617 | 3542 ft | 190 kts | 187° |
| 2026-04-18 06:28 | -20.27919 | -70.16769 | 3542 ft | 190 kts | 184° |
| 2026-04-18 06:28 | -20.29201 | -70.16850 | 3516 ft | 177 kts | 182° |
| 2026-04-18 06:29 | -20.30415 | -70.16895 | 3375 ft | 168 kts | 181° |
| 2026-04-18 06:29 | -20.31536 | -70.16930 | 3356 ft | 156 kts | 182° |
| 2026-04-18 06:29 | -20.32588 | -70.16955 | 3403 ft | 154 kts | 180° |
| 2026-04-18 06:29 | -20.33654 | -70.17005 | 3500 ft | 153 kts | 185° |
| 2026-04-18 06:30 | -20.34749 | -70.17084 | 3534 ft | 160 kts | 183° |
| 2026-04-18 06:30 | -20.35881 | -70.17141 | 3481 ft | 166 kts | 181° |
| 2026-04-18 06:30 | -20.37053 | -70.17177 | 3352 ft | 167 kts | 182° |
| 2026-04-18 06:30 | -20.38180 | -70.17261 | 3091 ft | 156 kts | 184° |
| 2026-04-18 06:31 | -20.39249 | -70.17341 | 2850 ft | 154 kts | 183° |
| 2026-04-18 06:31 | -20.40256 | -70.17353 | 2732 ft | 137 kts | 177° |
| 2026-04-18 06:31 | -20.41178 | -70.17305 | 2555 ft | 130 kts | 182° |
| 2026-04-18 06:31 | -20.42082 | -70.17398 | 2404 ft | 139 kts | 185° |
| 2026-04-18 06:32 | -20.42931 | -70.17477 | 2138 ft | 109 kts | 186° |
| 2026-04-18 06:32 | -20.43668 | -70.17590 | 1947 ft | 113 kts | 188° |
| 2026-04-18 06:32 | -20.44487 | -70.17695 | 1791 ft | 121 kts | 180° |
| 2026-04-18 06:32 | -20.45351 | -70.17719 | 1583 ft | 126 kts | 182° |
| 2026-04-18 06:33 | -20.46226 | -70.17748 | 1399 ft | 127 kts | 180° |
| 2026-04-18 06:33 | -20.47055 | -70.17795 | 1153 ft | 112 kts | 184° |
| 2026-04-18 06:33 | -20.47791 | -70.17825 | 1000 ft | 104 kts | 181° |
| 2026-04-18 06:33 | -20.48499 | -70.17855 | 861 ft | 100 kts | 182° |
| 2026-04-18 06:34 | -20.49183 | -70.17891 | 732 ft | 99 kts | 181° |
| 2026-04-18 06:34 | -20.49866 | -70.17931 | 614 ft | 98 kts | 183° |
| 2026-04-18 06:34 | -20.50550 | -70.17967 | 481 ft | 99 kts | 183° |
| 2026-04-18 06:34 | -20.51239 | -70.18003 | 311 ft | 99 kts | 182° |
| 2026-04-18 06:35 | -20.51919 | -70.18042 | 161 ft | 99 kts | 185° |
| 2026-04-18 06:35 | -20.52481 | -70.18074 | 103 ft | 60 kts | 183° |
| 2026-04-18 06:35 | -20.52814 | -70.18096 | 109 ft | 39 kts | 184° |
| 2026-04-18 06:35 | -20.53037 | -70.18104 | 115 ft | 31 kts | 184° |
| 2026-04-18 06:36 | -20.53314 | -70.18117 | 118 ft | 44 kts | 183° |
| 2026-04-18 06:36 | -20.53524 | -70.18119 | 121 ft | 20 kts | 172° |
| 2026-04-18 06:36 | -20.53568 | -70.18023 | 124 ft | 15 kts | 91° |
| 2026-04-18 06:36 | -20.53568 | -70.17985 | 124 ft | 0 kts | 88° |
| 2026-04-18 06:38 | -20.53568 | -70.17974 | 124 ft | 0 kts | 100° |
| 2026-04-18 06:38 | -20.53569 | -70.17969 | 124 ft | 1 kts | 100° |
| 2026-04-18 06:39 | -20.53573 | -70.17914 | 124 ft | 13 kts | 91° |
| 2026-04-18 06:39 | -20.53548 | -70.17853 | 123 ft | 12 kts | 345° |
| 2026-04-18 06:39 | -20.53541 | -70.17835 | 120 ft | 0 kts | 191° |